MV Sally Archer — WDB7650 — position and weather

sailwx.info

Track history (hours):
 
Tides and Currents Weather Stations Pressure Air Temp Water Temp Dewpoint Dewpoint Depression Visibility Wind Speed Wind Dir Waves Ship Positions

MV Sally Archer

Owner: American River Transportation Co., Saint Louis, MO. More information available from US FCC via Universal Licensing System and Coast Guard Vessel Documentation Center.

Last reported at 2017-Nov-18 05:24 UTC. Time now 2017-Nov-18 06:52 UTC.
Position N 31°59' W 091°10'.

Length 60 m; draft 3.5 m.

Type: Towing. MMSI: 366945650.

Date/timePositionNaut miles runAvg speedWind from/ knotsBaromVisibWave heightAir tempDewpointWater temp
2017-Nov-18 05:24N 31°59' W 091°10'3 8.5
2017-Nov-18 05:00N 31°59' W 091°06'7 7.2
2017-Nov-18 04:06N 32°06' W 091°06'1 9.0
2017-Nov-18 04:00N 32°07' W 091°06'2 3.2
2017-Nov-18 03:30N 32°08' W 091°05'4 7.4
2017-Nov-18 02:59N 32°08' W 091°01'4 8.8
2017-Nov-18 02:30N 32°12' W 090°59'4 8.6
2017-Nov-18 02:00N 32°16' W 090°58'4 8.4
2017-Nov-18 01:30N 32°19' W 090°54'2 3.2
2017-Nov-18 01:00N 32°20' W 090°54'2 4.6
2017-Nov-18 00:30N 32°21' W 090°57'0 0.2
2017-Nov-18 00:00N 32°21' W 090°57'0 0.0
2017-Nov-17 23:30N 32°21' W 090°57'0 0.0
2017-Nov-17 23:00N 32°21' W 090°57'0 0.0
2017-Nov-17 22:30N 32°21' W 090°57'0 0.0
2017-Nov-17 22:00N 32°21' W 090°57'0 0.0
2017-Nov-17 21:30N 32°21' W 090°57'0 0.0
2017-Nov-17 21:00N 32°21' W 090°57'0 0.0
2017-Nov-17 20:30N 32°21' W 090°57'0 0.0
2017-Nov-17 20:00N 32°21' W 090°57'0 0.0
2017-Nov-17 19:30N 32°21' W 090°57'0 0.0
2017-Nov-17 19:00N 32°21' W 090°57'0 0.0
2017-Nov-17 18:30N 32°21' W 090°57'0 0.0
2017-Nov-17 18:00N 32°21' W 090°57'0 0.0
2017-Nov-17 17:30N 32°21' W 090°57'0 0.0
2017-Nov-17 17:00N 32°21' W 090°57'0 0.0
2017-Nov-17 16:30N 32°21' W 090°57'0 0.0
2017-Nov-17 16:00N 32°21' W 090°57'0 0.0
2017-Nov-17 15:30N 32°21' W 090°57'0 0.0
2017-Nov-17 15:00N 32°21' W 090°57'0 0.0
2017-Nov-17 14:30N 32°21' W 090°57'0 0.0
2017-Nov-17 14:00N 32°21' W 090°57'0 0.0
2017-Nov-17 13:30N 32°21' W 090°57'0 0.0
2017-Nov-17 13:00N 32°21' W 090°57'0 0.7
2017-Nov-17 12:30N 32°21' W 090°57'2 4.2
2017-Nov-17 12:00N 32°21' W 090°60'4 7.2
2017-Nov-17 11:30N 32°25' W 090°60'4 8.1
2017-Nov-17 11:00N 32°26' W 091°04'4 8.0
2017-Nov-17 10:30N 32°30' W 091°07'4 8.6
2017-Nov-17 10:00N 32°34' W 091°06'4 8.4
2017-Nov-17 09:30N 32°37' W 091°09'  
Track history (hours):
 
Tides and Currents Weather Stations Pressure Air Temp Water Temp Dewpoint Dewpoint Depression Visibility Wind Speed Wind Dir Waves Ship Positions

MV Sally Archer

Owner: American River Transportation Co., Saint Louis, MO. More information available from US FCC via Universal Licensing System and Coast Guard Vessel Documentation Center.

Last reported at 2017-Nov-18 05:24 UTC. Time now 2017-Nov-18 06:52 UTC.
Position N 31°59' W 091°10'.

Length 60 m; draft 3.5 m.

Type: Towing. MMSI: 366945650.

Date/timePositionNaut miles runAvg speedWind from/ knotsBaromVisibWave heightAir tempDewpointWater temp
2017-Nov-18 05:24N 31°59' W 091°10'3 8.5
2017-Nov-18 05:00N 31°59' W 091°06'7 7.2
2017-Nov-18 04:06N 32°06' W 091°06'1 9.0
2017-Nov-18 04:00N 32°07' W 091°06'2 3.2
2017-Nov-18 03:30N 32°08' W 091°05'4 7.4
2017-Nov-18 02:59N 32°08' W 091°01'4 8.8
2017-Nov-18 02:30N 32°12' W 090°59'4 8.6
2017-Nov-18 02:00N 32°16' W 090°58'4 8.4
2017-Nov-18 01:30N 32°19' W 090°54'2 3.2
2017-Nov-18 01:00N 32°20' W 090°54'2 4.6
2017-Nov-18 00:30N 32°21' W 090°57'0 0.2
2017-Nov-18 00:00N 32°21' W 090°57'0 0.0
2017-Nov-17 23:30N 32°21' W 090°57'0 0.0
2017-Nov-17 23:00N 32°21' W 090°57'0 0.0
2017-Nov-17 22:30N 32°21' W 090°57'0 0.0
2017-Nov-17 22:00N 32°21' W 090°57'0 0.0
2017-Nov-17 21:30N 32°21' W 090°57'0 0.0
2017-Nov-17 21:00N 32°21' W 090°57'0 0.0
2017-Nov-17 20:30N 32°21' W 090°57'0 0.0
2017-Nov-17 20:00N 32°21' W 090°57'0 0.0
2017-Nov-17 19:30N 32°21' W 090°57'0 0.0
2017-Nov-17 19:00N 32°21' W 090°57'0 0.0
2017-Nov-17 18:30N 32°21' W 090°57'0 0.0
2017-Nov-17 18:00N 32°21' W 090°57'0 0.0
2017-Nov-17 17:30N 32°21' W 090°57'0 0.0
2017-Nov-17 17:00N 32°21' W 090°57'0 0.0
2017-Nov-17 16:30N 32°21' W 090°57'0 0.0
2017-Nov-17 16:00N 32°21' W 090°57'0 0.0
2017-Nov-17 15:30N 32°21' W 090°57'0 0.0
2017-Nov-17 15:00N 32°21' W 090°57'0 0.0
2017-Nov-17 14:30N 32°21' W 090°57'0 0.0
2017-Nov-17 14:00N 32°21' W 090°57'0 0.0
2017-Nov-17 13:30N 32°21' W 090°57'0 0.0
2017-Nov-17 13:00N 32°21' W 090°57'0 0.7
2017-Nov-17 12:30N 32°21' W 090°57'2 4.2
2017-Nov-17 12:00N 32°21' W 090°60'4 7.2
2017-Nov-17 11:30N 32°25' W 090°60'4 8.1
2017-Nov-17 11:00N 32°26' W 091°04'4 8.0
2017-Nov-17 10:30N 32°30' W 091°07'4 8.6
2017-Nov-17 10:00N 32°34' W 091°06'4 8.4
2017-Nov-17 09:30N 32°37' W 091°09'  

Dump ship's entire track history